createdAt,value
2023-04-14T00:02:03.219Z,2.20
2023-04-14T00:04:30.209Z,2.60
2023-04-14T00:06:58.607Z,2.60
2023-04-14T00:09:25.854Z,2.33
2023-04-14T00:11:52.705Z,2.78
2023-04-14T00:14:19.510Z,2.47
2023-04-14T00:16:46.800Z,2.88
2023-04-14T00:19:13.594Z,2.08
2023-04-14T00:21:40.488Z,2.75
2023-04-14T00:24:07.399Z,2.45
2023-04-14T00:26:34.216Z,2.40
2023-04-14T00:29:01.283Z,3.10
2023-04-14T00:31:28.330Z,2.45
2023-04-14T00:33:55.423Z,1.90
2023-04-14T00:36:22.175Z,2.67
2023-04-14T00:38:49.018Z,2.95
2023-04-14T00:41:15.854Z,1.98
2023-04-14T00:43:42.613Z,2.83
2023-04-14T00:46:09.472Z,2.42
2023-04-14T00:48:36.301Z,2.55
2023-04-14T00:51:03.813Z,1.90
2023-04-14T00:53:31.652Z,2.60
2023-04-14T00:55:59.189Z,2.30
2023-04-14T00:58:26.395Z,1.85
2023-04-14T01:00:55.599Z,1.70
2023-04-14T01:03:24.581Z,2.42
2023-04-14T01:05:51.832Z,1.83
2023-04-14T01:08:19.078Z,1.73
2023-04-14T01:11:17.076Z,1.40
2023-04-14T01:14:01.132Z,1.50
2023-04-14T01:16:33.015Z,1.70
2023-04-14T01:19:06.246Z,1.60
2023-04-14T01:21:36.641Z,1.08
2023-04-14T01:24:06.550Z,1.08
2023-04-14T01:26:33.351Z,1.60
2023-04-14T01:29:03.415Z,1.63
2023-04-14T01:31:39.459Z,1.60
2023-04-14T01:34:27.393Z,1.60
2023-04-14T01:37:13.928Z,1.58
2023-04-14T01:39:42.124Z,2.10
2023-04-14T01:42:15.474Z,1.52
2023-04-14T01:44:42.286Z,2.05
2023-04-14T01:47:11.108Z,2.40
2023-04-14T01:49:39.513Z,4.63
2023-04-14T01:52:10.939Z,4.20
2023-04-14T01:54:38.792Z,1.98
2023-04-14T01:57:05.565Z,1.00
2023-04-14T01:59:33.535Z,1.40
2023-04-14T02:02:02.505Z,1.80
2023-04-14T02:04:30.015Z,1.50
2023-04-14T02:06:57.769Z,1.20
2023-04-14T02:09:25.742Z,0.68
2023-04-14T02:11:52.510Z,0.70
2023-04-14T02:14:19.382Z,1.10
2023-04-14T02:16:47.608Z,0.90
2023-04-14T02:19:16.172Z,0.68
2023-04-14T02:21:42.914Z,0.55
2023-04-14T02:24:09.680Z,0.50
2023-04-14T02:26:36.706Z,0.95
2023-04-14T02:29:12.761Z,1.02
2023-04-14T02:31:42.637Z,1.40
2023-04-14T02:34:09.557Z,0.73
2023-04-14T02:36:57.330Z,0.70
2023-04-14T02:39:45.431Z,0.30
2023-04-14T02:42:16.413Z,0.30
2023-04-14T02:47:11.622Z,0.45
2023-04-14T02:49:42.696Z,0.40
2023-04-14T02:52:14.165Z,0.73
2023-04-14T02:54:42.143Z,0.32
2023-04-14T02:57:09.125Z,4.13
2023-04-14T02:59:36.368Z,0.98
2023-04-14T03:02:05.276Z,0.30
2023-04-14T03:04:33.893Z,1.08
2023-04-14T03:07:07.637Z,0.40
2023-04-14T03:09:34.530Z,0.45
2023-04-14T03:12:02.486Z,0.40
2023-04-14T03:14:29.362Z,0.50
2023-04-14T03:16:56.234Z,0.60
2023-04-14T03:19:23.659Z,0.93
2023-04-14T03:21:51.012Z,0.30
2023-04-14T03:24:30.924Z,0.50
2023-04-14T03:27:01.886Z,0.28
2023-04-14T03:34:28.658Z,0.40
2023-04-14T03:36:55.467Z,0.30
2023-04-14T03:39:22.383Z,0.65
2023-04-14T03:41:51.686Z,0.50
2023-04-14T03:44:19.313Z,0.30
2023-04-14T03:46:47.014Z,0.50
2023-04-14T03:49:16.735Z,1.38
2023-04-14T03:51:44.486Z,0.45
2023-04-14T03:54:11.715Z,0.40
2023-04-14T03:56:41.155Z,2.20
2023-04-14T03:59:11.484Z,0.60
2023-04-14T04:01:39.510Z,0.47
2023-04-14T04:04:06.413Z,0.60
2023-04-14T04:06:34.029Z,1.10
2023-04-14T04:09:02.104Z,0.50
2023-04-14T04:11:29.205Z,0.75
2023-04-14T04:13:56.465Z,0.38
2023-04-14T04:16:24.365Z,0.80
2023-04-14T04:18:51.227Z,1.45
2023-04-14T04:21:18.456Z,0.70
2023-04-14T04:23:52.438Z,0.45
2023-04-14T04:26:19.586Z,1.10
2023-04-14T04:28:46.753Z,0.63
2023-04-14T04:31:13.642Z,0.82
2023-04-14T04:33:41.049Z,2.00
2023-04-14T04:36:08.093Z,3.08
2023-04-14T04:38:34.889Z,2.25
2023-04-14T04:41:01.751Z,1.17
2023-04-14T04:43:28.549Z,1.25
2023-04-14T04:46:13.545Z,7.63
2023-04-14T04:48:40.337Z,2.55
2023-04-14T04:51:08.058Z,2.10
2023-04-14T04:53:34.888Z,2.13
2023-04-14T04:56:02.513Z,1.20
2023-04-14T04:58:29.294Z,0.60
2023-04-14T05:00:56.248Z,1.20
2023-04-14T05:03:23.107Z,2.03
2023-04-14T05:05:49.899Z,2.33
2023-04-14T05:08:16.760Z,1.60
2023-04-14T05:10:44.449Z,1.30
2023-04-14T05:13:11.401Z,1.48
2023-04-14T05:15:38.352Z,2.17
2023-04-14T05:18:05.208Z,1.65
2023-04-14T05:20:34.698Z,2.45
2023-04-14T05:23:01.745Z,1.83
2023-04-14T05:25:28.545Z,2.10
2023-04-14T05:27:55.445Z,2.22
2023-04-14T05:30:22.272Z,2.13
2023-04-14T05:32:49.061Z,2.10
2023-04-14T05:35:17.084Z,2.60
2023-04-14T05:37:43.867Z,1.70
2023-04-14T05:40:11.242Z,1.48
2023-04-14T05:42:38.010Z,1.10
2023-04-14T05:45:05.261Z,1.27
2023-04-14T05:47:32.962Z,2.10
2023-04-14T05:49:59.969Z,2.10
2023-04-14T05:52:26.717Z,1.60
2023-04-14T05:54:53.654Z,1.60
2023-04-14T05:57:21.282Z,2.90
2023-04-14T05:59:48.051Z,3.03
2023-04-14T06:02:14.887Z,1.35
2023-04-14T06:04:41.767Z,0.98
2023-04-14T06:07:08.719Z,11.52
2023-04-14T06:09:35.664Z,2.50
2023-04-14T06:12:02.508Z,45.47
2023-04-14T06:14:29.252Z,10.60
2023-04-14T06:16:56.273Z,4.40
2023-04-14T06:19:23.076Z,1.60
2023-04-14T06:21:49.929Z,1.63
2023-04-14T06:24:16.751Z,1.95
2023-04-14T06:26:43.511Z,0.88
2023-04-14T06:29:10.435Z,1.20
2023-04-14T06:31:37.365Z,1.88
2023-04-14T06:34:04.146Z,0.73
2023-04-14T06:36:32.006Z,0.90
2023-04-14T06:38:58.937Z,0.82
2023-04-14T06:41:25.791Z,1.38
2023-04-14T06:43:52.583Z,1.80
2023-04-14T06:46:19.596Z,1.33
2023-04-14T06:48:46.506Z,1.50
2023-04-14T06:51:14.064Z,1.88
2023-04-14T06:53:40.929Z,1.55
2023-04-14T06:56:07.988Z,1.98
2023-04-14T06:58:34.992Z,2.40
2023-04-14T07:01:02.722Z,2.35
2023-04-14T07:03:30.842Z,4.63
2023-04-14T07:06:08.328Z,2.85
2023-04-14T07:08:35.492Z,2.97
2023-04-14T07:11:07.098Z,3.70
2023-04-14T07:13:34.503Z,13.70
2023-04-14T07:16:02.836Z,13.93
2023-04-14T07:18:30.517Z,13.15
2023-04-14T07:20:57.722Z,10.20
2023-04-14T07:23:24.658Z,12.00
2023-04-14T07:25:56.094Z,9.23
2023-04-14T07:28:23.249Z,20.35
2023-04-14T07:30:50.568Z,5.05
2023-04-14T07:33:19.090Z,4.15
2023-04-14T07:36:01.915Z,3.05
2023-04-14T07:38:29.932Z,3.97
2023-04-14T07:40:56.719Z,12.85
2023-04-14T07:43:23.936Z,8.70
2023-04-14T07:45:52.122Z,6.38
2023-04-14T07:48:21.381Z,3.60
2023-04-14T07:50:49.840Z,2.60
2023-04-14T07:53:16.667Z,8.32
2023-04-14T07:55:43.461Z,10.98
2023-04-14T07:58:15.239Z,5.88
2023-04-14T08:00:42.885Z,6.78
2023-04-14T08:03:10.095Z,9.27
2023-04-14T08:05:37.807Z,8.77
2023-04-14T08:08:04.967Z,7.03
2023-04-14T08:10:31.893Z,5.20
2023-04-14T08:12:59.327Z,10.55
2023-04-14T08:15:26.987Z,16.38
2023-04-14T08:17:53.818Z,9.73
2023-04-14T08:20:20.635Z,10.35
2023-04-14T08:22:47.428Z,12.02
2023-04-14T08:25:14.772Z,10.82
2023-04-14T08:27:41.583Z,10.52
2023-04-14T08:30:10.185Z,21.10
2023-04-14T08:32:38.364Z,8.52
2023-04-14T08:35:37.343Z,5.53
2023-04-14T08:37:52.645Z,20.08
2023-04-14T08:40:19.707Z,7.13
2023-04-14T08:42:46.503Z,11.10
2023-04-14T08:45:13.327Z,6.85
2023-04-14T08:47:40.737Z,9.88
2023-04-14T08:50:12.987Z,14.65
2023-04-14T08:52:40.437Z,4.25
2023-04-14T08:55:08.076Z,7.47
2023-04-14T08:57:34.921Z,6.47
2023-04-14T09:00:05.002Z,6.68
2023-04-14T09:02:35.211Z,11.10
2023-04-14T09:05:02.399Z,70.25
2023-04-14T09:07:30.245Z,17.38
2023-04-14T09:09:57.882Z,15.10
2023-04-14T09:12:25.597Z,9.32
2023-04-14T09:14:52.899Z,5.72
2023-04-14T09:17:20.265Z,2.97
2023-04-14T09:20:35.033Z,4.95
2023-04-14T09:22:34.395Z,2.20
2023-04-14T09:25:01.309Z,6.10
2023-04-14T09:27:28.094Z,7.15
2023-04-14T09:29:57.024Z,5.43
2023-04-14T09:32:23.898Z,7.88
2023-04-14T09:34:55.637Z,11.00
2023-04-14T09:37:24.570Z,4.55
2023-04-14T09:39:52.135Z,1.40
2023-04-14T09:42:19.132Z,2.05
2023-04-14T09:44:59.009Z,1.30
2023-04-14T09:47:26.636Z,1.60
2023-04-14T09:50:03.966Z,1.75
2023-04-14T09:52:37.360Z,1.25
2023-04-14T09:55:09.648Z,1.45
2023-04-14T09:57:37.458Z,10.30
2023-04-14T10:00:19.138Z,8.77
2023-04-14T10:02:56.519Z,3.95
2023-04-14T10:05:32.188Z,18.83
2023-04-14T10:08:04.552Z,6.03
2023-04-14T10:10:31.541Z,5.60
2023-04-14T10:12:59.950Z,4.65
2023-04-14T10:15:27.371Z,2.65
2023-04-14T10:17:54.299Z,15.55
2023-04-14T10:20:21.133Z,3.60
2023-04-14T10:22:48.079Z,6.65
2023-04-14T10:25:15.010Z,3.08
2023-04-14T10:27:41.812Z,5.63
2023-04-14T10:30:09.040Z,1.60
2023-04-14T10:32:36.885Z,8.93
2023-04-14T10:35:09.239Z,13.13
2023-04-14T10:37:36.903Z,9.88
2023-04-14T10:40:08.205Z,11.45
2023-04-14T10:42:57.254Z,8.40
2023-04-14T10:45:24.187Z,7.32
2023-04-14T10:47:51.206Z,11.60
2023-04-14T10:50:18.690Z,7.57
2023-04-14T10:52:58.929Z,9.13
2023-04-14T10:55:28.698Z,8.15
2023-04-14T10:58:06.898Z,11.53
2023-04-14T11:00:37.876Z,9.23
2023-04-14T11:03:07.868Z,7.00
2023-04-14T11:05:35.565Z,5.45
2023-04-14T11:08:13.036Z,3.00
2023-04-14T11:10:40.259Z,1.00
2023-04-14T11:13:09.104Z,1.17
2023-04-14T11:15:45.107Z,2.58
2023-04-14T11:18:14.668Z,0.88
2023-04-14T11:20:44.671Z,0.50
2023-04-14T11:23:13.408Z,1.58
2023-04-14T11:25:40.472Z,1.27
2023-04-14T11:28:07.989Z,0.60
2023-04-14T11:30:34.823Z,1.60
2023-04-14T11:33:01.823Z,1.23
2023-04-14T11:35:29.300Z,0.50
2023-04-14T11:37:56.601Z,1.77
2023-04-14T11:40:24.119Z,0.95
2023-04-14T11:42:58.466Z,0.35
2023-04-14T11:45:29.035Z,0.30
2023-04-14T11:48:05.706Z,0.75
2023-04-14T11:50:33.558Z,1.00
2023-04-14T11:53:00.805Z,1.08
2023-04-14T11:55:27.970Z,1.90
2023-04-14T11:57:55.627Z,1.23
2023-04-14T12:00:22.453Z,4.10
2023-04-14T12:02:49.443Z,1.17
2023-04-14T12:05:22.266Z,1.98
2023-04-14T12:07:49.655Z,2.25
2023-04-14T12:10:16.730Z,4.35
2023-04-14T12:12:43.577Z,3.00
2023-04-14T12:15:10.832Z,1.00
2023-04-14T12:17:38.601Z,2.72
2023-04-14T12:20:05.959Z,0.90
2023-04-14T12:22:32.828Z,1.67
2023-04-14T12:24:59.793Z,1.20
2023-04-14T12:27:27.620Z,0.60
2023-04-14T12:29:54.450Z,4.55
2023-04-14T12:32:22.880Z,3.60
2023-04-14T12:34:59.110Z,2.15
2023-04-14T12:37:28.976Z,1.35
2023-04-14T12:40:01.328Z,1.10
2023-04-14T12:42:29.109Z,1.15
2023-04-14T12:45:01.389Z,0.77
2023-04-14T12:47:34.998Z,0.30
2023-04-14T12:50:03.137Z,2.05
2023-04-14T12:52:38.183Z,0.45
2023-04-14T12:55:06.797Z,0.80
2023-04-14T12:57:34.283Z,4.35
2023-04-14T13:00:02.066Z,5.40
2023-04-14T13:02:30.299Z,0.73
2023-04-14T13:04:57.378Z,2.42
2023-04-14T13:07:24.246Z,1.17
2023-04-14T13:09:52.017Z,0.52
2023-04-14T13:12:18.913Z,0.70
2023-04-14T13:14:45.777Z,2.70
2023-04-14T13:17:12.824Z,2.00
2023-04-14T13:19:39.675Z,0.30
2023-04-14T13:22:06.417Z,0.60
2023-04-14T13:24:33.242Z,0.30
2023-04-14T13:27:00.833Z,0.35
2023-04-14T13:29:27.570Z,0.55
2023-04-14T13:31:54.420Z,0.50
2023-04-14T13:34:21.167Z,0.90
2023-04-14T13:36:48.399Z,0.95
2023-04-14T13:39:15.503Z,1.00
2023-04-14T13:41:42.979Z,0.93
2023-04-14T13:44:10.122Z,1.92
2023-04-14T13:46:41.115Z,0.55
2023-04-14T13:49:08.413Z,0.73
2023-04-14T13:51:35.246Z,0.80
2023-04-14T13:54:02.469Z,0.90
2023-04-14T13:56:29.253Z,3.00
2023-04-14T13:58:56.296Z,1.52
2023-04-14T14:01:23.176Z,4.05
2023-04-14T14:03:50.662Z,1.45
2023-04-14T14:06:18.916Z,1.30
2023-04-14T14:08:46.144Z,1.77
2023-04-14T14:11:13.986Z,1.13
2023-04-14T14:13:41.047Z,1.52
2023-04-14T14:16:08.537Z,0.73
2023-04-14T14:18:36.318Z,3.28
2023-04-14T14:21:04.179Z,1.58
2023-04-14T14:23:31.194Z,0.90
2023-04-14T14:25:58.028Z,1.60
2023-04-14T14:28:24.772Z,0.90
2023-04-14T14:30:52.022Z,0.50
2023-04-14T14:33:18.826Z,0.70
2023-04-14T14:35:45.725Z,1.90
2023-04-14T14:38:12.466Z,2.08
2023-04-14T14:40:39.648Z,3.00
2023-04-14T14:43:06.426Z,3.90
2023-04-14T14:45:33.371Z,2.40
2023-04-14T14:48:01.368Z,2.20
2023-04-14T14:50:28.217Z,1.33
2023-04-14T14:52:56.938Z,1.40
2023-04-14T14:55:23.757Z,5.97
2023-04-14T14:57:51.298Z,1.17
2023-04-14T15:00:18.877Z,2.90
2023-04-14T15:02:45.945Z,3.08
2023-04-14T15:05:12.953Z,0.68
2023-04-14T15:07:39.932Z,2.58
2023-04-14T15:10:07.225Z,2.60
2023-04-14T15:12:34.016Z,3.10
2023-04-14T15:15:00.878Z,4.47
2023-04-14T15:17:27.919Z,2.55
2023-04-14T15:19:54.932Z,0.65
2023-04-14T15:22:21.764Z,0.60
2023-04-14T15:24:48.523Z,0.65
2023-04-14T15:27:15.297Z,0.90
2023-04-14T15:29:42.159Z,0.73
2023-04-14T15:32:08.991Z,1.13
2023-04-14T15:34:36.533Z,0.95
2023-04-14T15:37:03.377Z,0.30
2023-04-14T15:39:30.168Z,1.30
2023-04-14T15:41:57.044Z,0.50
2023-04-14T15:44:26.083Z,0.82
2023-04-14T15:46:53.440Z,0.95
2023-04-14T15:49:20.852Z,0.40
2023-04-14T15:51:49.622Z,0.40
2023-04-14T15:54:17.384Z,0.90
2023-04-14T15:56:44.190Z,0.30
2023-04-14T15:59:11.730Z,2.65
2023-04-14T16:01:38.555Z,0.50
2023-04-14T16:04:05.745Z,3.35
2023-04-14T16:06:34.031Z,9.85
2023-04-14T16:09:01.054Z,2.25
2023-04-14T16:11:29.716Z,0.90
2023-04-14T16:13:56.923Z,2.75
2023-04-14T16:16:24.985Z,6.20
2023-04-14T16:18:52.750Z,3.28
2023-04-14T16:21:19.571Z,0.80
2023-04-14T16:23:46.519Z,2.75
2023-04-14T16:26:13.296Z,2.38
2023-04-14T16:28:40.094Z,5.75
2023-04-14T16:31:06.897Z,2.72
2023-04-14T16:33:33.746Z,3.95
2023-04-14T16:36:06.159Z,1.83
2023-04-14T16:38:33.057Z,5.28
2023-04-14T16:41:00.869Z,1.85
2023-04-14T16:43:28.137Z,2.08
2023-04-14T16:46:02.017Z,5.72
2023-04-14T16:48:29.198Z,2.40
2023-04-14T16:50:56.072Z,1.17
2023-04-14T16:53:22.792Z,2.15
2023-04-14T16:55:49.544Z,4.18
2023-04-14T16:58:16.713Z,1.80
2023-04-14T17:00:43.681Z,7.10
2023-04-14T17:03:10.834Z,2.47
2023-04-14T17:05:37.946Z,2.08
2023-04-14T17:08:04.999Z,1.90
2023-04-14T17:10:31.857Z,2.00
2023-04-14T17:12:58.616Z,1.90
2023-04-14T17:15:25.404Z,0.70
2023-04-14T17:17:52.254Z,4.53
2023-04-14T17:20:19.089Z,2.15
2023-04-14T17:22:46.954Z,2.03
2023-04-14T17:25:13.779Z,0.98
2023-04-14T17:27:40.681Z,1.83
2023-04-14T17:30:10.027Z,6.38
2023-04-14T17:32:37.693Z,2.45
2023-04-14T17:35:04.635Z,1.23
2023-04-14T17:37:32.085Z,1.10
2023-04-14T17:39:59.420Z,1.48
2023-04-14T17:42:26.431Z,1.42
2023-04-14T17:44:53.273Z,3.47
2023-04-14T17:47:21.947Z,2.38
2023-04-14T17:49:50.034Z,1.25
2023-04-14T17:52:17.243Z,1.65
2023-04-14T17:54:44.648Z,2.05
2023-04-14T17:57:13.181Z,1.80
2023-04-14T17:59:41.573Z,2.40
2023-04-14T18:02:15.803Z,2.25
2023-04-14T18:04:42.897Z,3.55
2023-04-14T18:07:09.703Z,1.65
2023-04-14T18:09:36.533Z,2.50
2023-04-14T18:12:03.415Z,1.80
2023-04-14T18:14:31.076Z,2.10
2023-04-14T18:16:58.468Z,3.90
2023-04-14T18:19:25.374Z,9.30
2023-04-14T18:21:52.311Z,4.25
2023-04-14T18:26:48.784Z,6.57
2023-04-14T18:29:15.583Z,14.73
2023-04-14T18:31:42.750Z,4.45
2023-04-14T18:34:10.358Z,8.82
2023-04-14T18:36:38.749Z,5.75
2023-04-14T18:39:07.039Z,6.43
2023-04-14T18:41:33.791Z,10.25
2023-04-14T18:44:00.654Z,5.05
2023-04-14T18:46:30.252Z,8.07
2023-04-14T18:48:57.114Z,6.05
2023-04-14T18:51:24.344Z,4.72
2023-04-14T18:53:51.177Z,8.63
2023-04-14T18:56:18.608Z,5.10
2023-04-14T18:58:46.231Z,11.07
2023-04-14T19:01:13.284Z,7.60
2023-04-14T19:03:40.388Z,3.58
2023-04-14T19:06:07.574Z,2.67
2023-04-14T19:08:34.473Z,2.90
2023-04-14T19:11:01.264Z,3.08
2023-04-14T19:13:28.048Z,2.90
2023-04-14T19:16:08.401Z,2.70
2023-04-14T19:18:35.612Z,3.53
2023-04-14T19:21:02.776Z,9.32
2023-04-14T19:23:30.187Z,9.07
2023-04-14T19:25:57.576Z,8.52
2023-04-14T19:28:24.646Z,16.10
2023-04-14T19:30:51.568Z,11.45
2023-04-14T19:33:18.611Z,11.95
2023-04-14T19:35:45.857Z,10.52
2023-04-14T19:38:12.669Z,14.80
2023-04-14T19:40:39.741Z,14.27
2023-04-14T19:43:06.992Z,17.13
2023-04-14T19:45:33.810Z,15.50
2023-04-14T19:48:05.224Z,21.30
2023-04-14T19:50:37.233Z,25.73
2023-04-14T19:53:03.934Z,23.60
2023-04-14T19:55:31.242Z,24.75
2023-04-14T19:57:58.182Z,26.60
2023-04-14T20:00:25.515Z,25.98
2023-04-14T20:02:52.357Z,25.08
2023-04-14T20:05:20.304Z,25.35
2023-04-14T20:07:47.229Z,26.55
2023-04-14T20:10:14.388Z,27.13
2023-04-14T20:12:41.208Z,24.42
2023-04-14T20:15:08.466Z,22.67
2023-04-14T20:17:35.283Z,24.08
2023-04-14T20:20:02.474Z,26.80
2023-04-14T20:22:29.412Z,25.35
2023-04-14T20:24:56.304Z,33.30
2023-04-14T20:27:23.808Z,37.63
2023-04-14T20:29:51.334Z,36.90
2023-04-14T20:32:19.580Z,38.78
2023-04-14T20:34:47.186Z,30.17
2023-04-14T20:37:13.986Z,22.48
2023-04-14T20:39:40.818Z,18.75
2023-04-14T20:42:07.664Z,20.05
2023-04-14T20:44:34.622Z,21.58
2023-04-14T20:47:01.810Z,21.35
2023-04-14T20:49:28.625Z,24.08
2023-04-14T20:51:58.456Z,23.83
2023-04-14T20:54:25.766Z,23.50
2023-04-14T20:56:52.607Z,23.25
2023-04-14T20:59:19.486Z,19.65
2023-04-14T21:01:46.714Z,17.40
2023-04-14T21:04:13.606Z,14.90
2023-04-14T21:06:40.478Z,14.13
2023-04-14T21:09:07.346Z,15.05
2023-04-14T21:11:34.156Z,15.73
2023-04-14T21:15:31.115Z,13.82
2023-04-14T21:16:47.787Z,14.98
2023-04-14T21:19:14.787Z,12.05
2023-04-14T21:21:42.115Z,9.57
2023-04-14T21:24:09.008Z,10.60
2023-04-14T21:26:35.734Z,8.32
2023-04-14T21:29:02.690Z,8.90
2023-04-14T21:31:29.820Z,7.65
2023-04-14T21:33:56.977Z,8.73
2023-04-14T21:36:24.539Z,8.80
2023-04-14T21:38:51.639Z,9.90
2023-04-14T21:41:18.364Z,9.20
2023-04-14T21:43:45.167Z,7.00
2023-04-14T21:46:12.026Z,7.20
2023-04-14T21:48:38.806Z,7.43
2023-04-14T21:51:05.680Z,5.70
2023-04-14T21:53:32.635Z,4.68
2023-04-14T21:56:10.217Z,4.88
2023-04-14T21:58:37.765Z,6.00
2023-04-14T22:01:04.851Z,5.95
2023-04-14T22:03:33.165Z,6.15
2023-04-14T22:06:00.138Z,18.98
2023-04-14T22:08:26.949Z,21.55
2023-04-14T22:10:54.882Z,23.02
2023-04-14T22:13:21.753Z,22.05
2023-04-14T22:15:49.695Z,20.98
2023-04-14T22:18:17.208Z,21.30
2023-04-14T22:20:45.191Z,22.98
2023-04-14T22:23:13.240Z,22.85
2023-04-14T22:25:40.077Z,26.08
2023-04-14T22:28:07.430Z,23.10
2023-04-14T22:30:34.417Z,23.30
2023-04-14T22:33:01.355Z,25.05
2023-04-14T22:35:28.893Z,25.02
2023-04-14T22:37:55.594Z,13.65
2023-04-14T22:40:22.616Z,10.88
2023-04-14T22:42:49.420Z,8.80
2023-04-14T22:45:17.244Z,8.35
2023-04-14T22:47:44.031Z,7.95
2023-04-14T22:50:11.007Z,7.97
2023-04-14T22:52:37.834Z,9.07
2023-04-14T22:55:04.973Z,8.18
2023-04-14T22:57:31.939Z,8.60
2023-04-14T22:59:58.785Z,9.45
2023-04-14T23:02:26.009Z,13.13
2023-04-14T23:04:52.973Z,10.85
2023-04-14T23:07:19.813Z,13.52
2023-04-14T23:09:46.629Z,14.10
2023-04-14T23:12:13.488Z,13.95
2023-04-14T23:14:40.639Z,13.48
2023-04-14T23:17:07.404Z,13.18
2023-04-14T23:19:35.808Z,13.60
2023-04-14T23:22:02.685Z,12.10
2023-04-14T23:24:29.490Z,13.68
2023-04-14T23:26:56.333Z,9.70
2023-04-14T23:29:23.120Z,9.05
2023-04-14T23:31:50.160Z,6.45
2023-04-14T23:34:17.123Z,7.05
2023-04-14T23:36:46.282Z,7.43
2023-04-14T23:39:13.231Z,7.32
2023-04-14T23:41:40.028Z,6.55
2023-04-14T23:44:07.032Z,7.38
2023-04-14T23:46:34.232Z,7.25
2023-04-14T23:49:03.074Z,7.00
2023-04-14T23:51:48.298Z,6.30
2023-04-14T23:54:15.516Z,5.63
2023-04-14T23:56:42.547Z,5.35
2023-04-14T23:59:09.725Z,5.80
